Etusivu
METAR-TAF:

METAR-TAF

Lentoasemat :

Cazaux, Ranska

Leveyspiiri: 44-32N, Pituuspiiri: 001-08W, korkeus merenpinnasta: 25 m

Tämänhetkinen sää

Tämä raportti tehtiin 40 minuuttia sitten, kello 05.00 UTC
tyyntä
Lämpötila 6°C
Kosteus 100%
Ilmanpaine 1023 hPa
Näkyvyys: 5000 m
utua

METAR: LFBC 210500Z AUTO 00000KT 5000 BR NSC 06/06 Q1023

Aika: 07:40 (05:40 UTC)

Sääennuste

Tämä raportti tehtiin 11 tuntia ja 50 minuuttia sitten, kello 17.50 UTC
Ennuste voimassa 19. päivästä klo 17 UTC - 20. päivään klo 15 UTC
Tuuli 5 kn pohjoisesta/koillisesta
Näkyvyys 10 km tai enemmän
ei pilviä alle 1500 m:ssä eikä cumulonimbus-pilviä
Ajoittain
20. päivästä klo 03 UTC - 20. päivään klo 08 UTC
Näkyvyys: 0500 m
sumua

TAF: LFBC 191750Z 1917/2015 02005KT CAVOK TEMPO 2003/2008 0500 FG

Säähavainnot ja -ennusteet yli 4000 lentoasemalta (METAR- ja TAF-raportit).

Käytössä olevat sääasemat on merkitty karttaan keltaisilla ja punaisilla pisteillä.

Aseta hiiri pisteen päälle nähdäksesi sääaseman nimen.

Klikkaa sitten nähdäksesi säähavainnot ja -ennusteet.

Kartan vaihtaminen: klikkaa mustalla rastilla varustettuja vihreitä pisteitä, niin voit zoomata sisään; viivalla varustettua vihreää pistettä, niin voit zoomata ulos tai vihreitä nuolia, niin pääset viereisille kartoille.


METAR-TAF: